Pilger, Nebraska
Current Conditions -  °F | °C
As of 12:55 PM on Monday 20 Oct 2014 (Local Time) from KLCG Reporting Station
Clear Clear  
Wind Chill: 69°   Ceiling: Unl
Heat Index: 69°   Visibility: 10mi
Dew Point: 37°   Wind: 7mph
Humidity: 30%   Direction: 30°NNE
Pressure: 30.11"   Gusts: NA
Location:  42.01°N, 97.05°W
Report Text: KLCG 201755Z AUTO 03006KT 10SM CLR 21/03 A3011 RMK AO2 T02080027 10208 20015
Loading
Personal Weather Stations






























Interactive Weather Map
Tropical Storm Tracking
New forecast layout! Learn more

10-Day Weather Forecast

Advertisements
Track Severe Weather on mobile